Time;durP1;ratioP1;P1;durP2;ratioP2;P2;SDS_P1;SDS_P2;PMS_P1;PMS_P2;Temp;Humidity;BMP_temperature;BMP_pressure;BME280_temperature;BME280_humidity;BME280_pressure;Samples;Min_cycle;Max_cycle;Signal;HPM_P1;HPM_P2
2023/09/16 00:00:35;;;;;;;8.30;7.50;;;;;;;;;;10264562;28;20049;-68
2023/09/16 00:05:32;;;;;;;8.38;7.68;;;;;;;;;;10263257;28;20045;-68
2023/09/16 00:10:28;;;;;;;8.75;7.75;;;;;;;;;;10265984;28;20143;-68
2023/09/16 00:15:24;;;;;;;8.05;7.25;;;;;;;;;;10264737;28;20539;-68
2023/09/16 00:20:25;;;;;;;9.07;6.75;;;;;;;;;;10261146;28;20056;-68
2023/09/16 00:25:21;;;;;;;8.80;7.90;;;;;;;;;;10261227;28;20135;-68
2023/09/16 00:30:17;;;;;;;9.77;8.88;;;;;;;;;;10261535;28;20064;-67
2023/09/16 00:35:14;;;;;;;8.85;8.05;;;;;;;;;;10261928;28;20091;-68
2023/09/16 00:40:10;;;;;;;8.48;7.68;;;;;;;;;;10264665;28;20053;-67
2023/09/16 00:45:10;;;;;;;8.88;8.02;;;;;;;;;;10254607;28;20501;-68
2023/09/16 00:50:07;;;;;;;8.20;7.40;;;;;;;;;;10260308;28;20512;-68
2023/09/16 00:55:04;;;;;;;10.52;8.65;;;;;;;;;;10256876;28;20053;-68
2023/09/16 01:00:00;;;;;;;8.52;7.70;;;;;;;;;;10260269;28;20135;-68
2023/09/16 01:04:56;;;;;;;9.65;8.75;;;;;;;;;;10262941;28;20501;-68
2023/09/16 01:09:53;;;;;;;9.60;8.05;;;;;;;;;;10261762;28;20041;-68
2023/09/16 01:14:49;;;;;;;8.70;7.90;;;;;;;;;;10247261;28;20041;-68
2023/09/16 01:20:05;;;;;;;10.40;8.57;;;;;;;;;;10263135;28;20049;-68
2023/09/16 01:25:04;;;;;;;12.77;9.13;;;;;;;;;;10261095;28;20532;-68
2023/09/16 01:30:02;;;;;;;9.38;8.43;;;;;;;;;;10263462;28;20160;-68
2023/09/16 01:35:00;;;;;;;9.40;8.57;;;;;;;;;;10262964;28;20053;-67
2023/09/16 01:39:57;;;;;;;10.10;9.20;;;;;;;;;;10261512;28;20504;-67
2023/09/16 01:44:54;;;;;;;9.38;8.57;;;;;;;;;;10269194;28;20053;-68
2023/09/16 01:49:50;;;;;;;10.45;9.55;;;;;;;;;;10272550;28;20365;-68
2023/09/16 01:54:50;;;;;;;9.82;8.93;;;;;;;;;;10261554;28;20045;-69
2023/09/16 01:59:46;;;;;;;9.18;8.38;;;;;;;;;;10253438;28;20100;-68
2023/09/16 02:04:44;;;;;;;10.57;9.57;;;;;;;;;;10264554;28;20582;-67
2023/09/16 02:09:41;;;;;;;10.50;9.40;;;;;;;;;;10263753;28;20068;-67
2023/09/16 02:14:38;;;;;;;11.02;9.95;;;;;;;;;;10254920;28;20049;-68
2023/09/16 02:19:35;;;;;;;10.43;9.38;;;;;;;;;;10265695;28;20072;-69
2023/09/16 02:24:32;;;;;;;10.88;9.57;;;;;;;;;;10256527;28;20049;-68
2023/09/16 02:29:28;;;;;;;9.75;8.95;;;;;;;;;;10265140;28;20433;-67
2023/09/16 02:34:24;;;;;;;10.38;9.20;;;;;;;;;;10247442;28;20073;-68
2023/09/16 02:39:21;;;;;;;16.35;10.93;;;;;;;;;;10267839;28;20045;-68
2023/09/16 02:44:17;;;;;;;11.27;10.15;;;;;;;;;;10256541;28;20064;-68
2023/09/16 02:49:14;;;;;;;10.68;9.77;;;;;;;;;;10262699;28;20543;-68
2023/09/16 02:54:10;;;;;;;14.32;10.63;;;;;;;;;;10274205;28;20055;-68
2023/09/16 02:59:06;;;;;;;11.75;10.43;;;;;;;;;;10282889;28;20059;-69
2023/09/16 03:04:03;;;;;;;11.65;10.50;;;;;;;;;;10276692;28;20800;-68
2023/09/16 03:08:59;;;;;;;12.05;10.85;;;;;;;;;;10275713;28;20512;-69
2023/09/16 03:13:55;;;;;;;11.77;10.68;;;;;;;;;;10265248;28;20077;-68
2023/09/16 03:18:52;;;;;;;11.68;10.68;;;;;;;;;;10276622;28;20152;-69
2023/09/16 03:23:49;;;;;;;11.23;10.18;;;;;;;;;;10263922;28;20073;-69
2023/09/16 03:28:45;;;;;;;12.25;11.07;;;;;;;;;;10277848;28;20045;-69
2023/09/16 03:33:43;;;;;;;13.27;12.07;;;;;;;;;;10273140;28;20064;-69
2023/09/16 03:38:46;;;;;;;13.05;11.85;;;;;;;;;;10266480;28;20049;-69
2023/09/16 03:43:43;;;;;;;13.93;11.38;;;;;;;;;;10256791;28;20060;-69
2023/09/16 03:48:43;;;;;;;12.40;11.40;;;;;;;;;;10276908;28;20107;-69
2023/09/16 03:53:40;;;;;;;13.48;12.27;;;;;;;;;;10254276;28;20420;-69
2023/09/16 03:58:36;;;;;;;12.52;11.35;;;;;;;;;;10258378;28;20152;-68
2023/09/16 04:03:33;;;;;;;13.55;12.35;;;;;;;;;;10270835;28;20608;-68
2023/09/16 04:08:30;;;;;;;13.10;11.73;;;;;;;;;;10261695;28;20136;-68
2023/09/16 04:13:38;;;;;;;13.50;12.13;;;;;;;;;;10263060;28;20589;-68
2023/09/16 04:18:34;;;;;;;13.38;12.07;;;;;;;;;;10265322;28;20065;-69
2023/09/16 04:23:31;;;;;;;14.05;12.85;;;;;;;;;;10247186;28;20053;-68
2023/09/16 04:28:28;;;;;;;13.60;12.38;;;;;;;;;;10248790;28;20068;-69
2023/09/16 04:33:24;;;;;;;13.55;12.23;;;;;;;;;;10257407;28;20060;-69
2023/09/16 04:38:22;;;;;;;14.52;13.23;;;;;;;;;;10258704;28;20041;-69
2023/09/16 04:43:19;;;;;;;13.88;12.55;;;;;;;;;;10255115;28;20061;-69
2023/09/16 04:48:15;;;;;;;13.38;12.07;;;;;;;;;;10253681;28;20448;-68
2023/09/16 04:53:12;;;;;;;14.00;12.65;;;;;;;;;;10247500;28;20045;-68
2023/09/16 04:58:08;;;;;;;15.18;13.73;;;;;;;;;;10256085;28;20071;-67
2023/09/16 05:03:05;;;;;;;13.77;12.45;;;;;;;;;;10252330;28;20054;-70
2023/09/16 05:08:02;;;;;;;13.98;12.68;;;;;;;;;;10262877;28;20083;-68
2023/09/16 05:12:58;;;;;;;15.00;13.43;;;;;;;;;;10270577;28;20049;-68
2023/09/16 05:17:55;;;;;;;14.13;12.45;;;;;;;;;;10261374;28;20049;-69
2023/09/16 05:22:52;;;;;;;13.88;12.57;;;;;;;;;;10268913;28;20053;-69
2023/09/16 05:27:48;;;;;;;14.23;12.80;;;;;;;;;;10262271;28;20052;-69
2023/09/16 05:32:45;;;;;;;13.40;12.20;;;;;;;;;;10270262;28;20045;-69
2023/09/16 05:37:41;;;;;;;14.32;13.07;;;;;;;;;;10261330;28;20041;-69
2023/09/16 05:42:38;;;;;;;13.68;12.57;;;;;;;;;;10265989;28;20045;-69
2023/09/16 05:47:34;;;;;;;14.38;13.00;;;;;;;;;;10248751;28;20048;-69
2023/09/16 05:52:30;;;;;;;14.65;13.23;;;;;;;;;;10274696;28;20099;-69
2023/09/16 05:57:27;;;;;;;13.70;12.50;;;;;;;;;;10266627;28;20069;-68
2023/09/16 06:02:23;;;;;;;14.13;12.70;;;;;;;;;;10262011;28;20547;-68
2023/09/16 06:07:20;;;;;;;13.75;12.55;;;;;;;;;;10265295;28;20080;-68
2023/09/16 06:12:16;;;;;;;14.88;13.38;;;;;;;;;;10266081;28;20048;-67
2023/09/16 06:17:12;;;;;;;13.18;12.02;;;;;;;;;;10260010;28;20056;-68
2023/09/16 06:22:10;;;;;;;14.98;13.68;;;;;;;;;;10268053;28;20099;-71
2023/09/16 06:27:06;;;;;;;14.52;12.82;;;;;;;;;;10262272;28;20048;-69
2023/09/16 06:32:02;;;;;;;14.18;12.88;;;;;;;;;;10264130;28;20059;-69
2023/09/16 06:37:00;;;;;;;14.18;12.85;;;;;;;;;;10265402;28;20535;-68
2023/09/16 06:41:57;;;;;;;13.10;11.95;;;;;;;;;;10259853;28;20103;-68
2023/09/16 06:46:53;;;;;;;14.65;12.48;;;;;;;;;;10258616;28;20176;-68
2023/09/16 06:51:49;;;;;;;13.77;12.57;;;;;;;;;;10252528;28;20133;-68
2023/09/16 06:56:46;;;;;;;14.27;12.98;;;;;;;;;;10268376;28;20144;-69
2023/09/16 07:01:42;;;;;;;14.40;13.07;;;;;;;;;;10265552;28;20049;-70
2023/09/16 07:06:38;;;;;;;13.90;12.68;;;;;;;;;;10266977;28;20141;-68
2023/09/16 07:11:35;;;;;;;13.30;11.93;;;;;;;;;;10259145;28;20041;-68
2023/09/16 07:16:36;;;;;;;13.05;11.85;;;;;;;;;;10259705;28;20057;-69
2023/09/16 07:21:34;;;;;;;12.37;11.23;;;;;;;;;;10264764;28;20045;-69
2023/09/16 07:26:30;;;;;;;14.00;12.63;;;;;;;;;;10255780;28;20081;-69
2023/09/16 07:31:27;;;;;;;13.20;11.77;;;;;;;;;;10266855;28;20044;-70
2023/09/16 07:36:23;;;;;;;12.75;11.55;;;;;;;;;;10262311;28;20065;-70
2023/09/16 07:41:19;;;;;;;15.27;11.20;;;;;;;;;;10261398;28;20045;-70
2023/09/16 07:46:16;;;;;;;10.98;9.98;;;;;;;;;;10262888;28;20285;-70
2023/09/16 07:51:12;;;;;;;11.20;10.20;;;;;;;;;;10263034;28;20782;-69
2023/09/16 07:56:08;;;;;;;13.25;10.30;;;;;;;;;;10250882;28;20052;-71
2023/09/16 08:01:05;;;;;;;10.77;9.68;;;;;;;;;;10255208;28;20658;-71
2023/09/16 08:06:01;;;;;;;10.23;9.32;;;;;;;;;;10243932;28;20118;-71
2023/09/16 08:10:57;;;;;;;11.00;9.90;;;;;;;;;;10261186;28;20083;-71
2023/09/16 08:15:54;;;;;;;10.88;9.77;;;;;;;;;;10255069;28;20142;-71
2023/09/16 08:20:50;;;;;;;12.45;10.00;;;;;;;;;;10262728;28;20051;-71
2023/09/16 08:25:47;;;;;;;9.85;8.88;;;;;;;;;;10262944;28;20049;-71
2023/09/16 08:30:43;;;;;;;13.52;9.07;;;;;;;;;;10256842;28;20048;-70
2023/09/16 08:35:39;;;;;;;12.40;9.07;;;;;;;;;;10252906;28;20338;-71
2023/09/16 08:40:36;;;;;;;10.63;8.60;;;;;;;;;;10252460;28;20128;-71
2023/09/16 08:45:34;;;;;;;9.45;8.45;;;;;;;;;;10265407;28;20479;-71
2023/09/16 08:50:31;;;;;;;8.95;8.07;;;;;;;;;;10247722;28;20386;-71
2023/09/16 08:55:29;;;;;;;9.20;8.30;;;;;;;;;;10260136;28;20080;-71
2023/09/16 09:00:25;;;;;;;10.15;8.45;;;;;;;;;;10253108;28;20112;-72
2023/09/16 09:05:23;;;;;;;9.57;8.57;;;;;;;;;;10250747;28;20052;-72
2023/09/16 09:10:20;;;;;;;10.35;8.20;;;;;;;;;;10251246;28;20103;-73
2023/09/16 09:26:46;;;;;;;9.25;8.35;;;;;;;;;;9940940;29;20057;-74
2023/09/16 09:37:49;;;;;;;9.15;8.25;;;;;;;;;;10166171;22;20037;-74
2023/09/16 09:43:52;;;;;;;7.53;6.93;;;;;;;;;;10096994;28;20053;-74
2023/09/16 09:49:31;;;;;;;8.05;7.25;;;;;;;;;;10219798;28;20053;-74
2023/09/16 09:54:40;;;;;;;8.68;7.45;;;;;;;;;;10251836;28;20875;-74
2023/09/16 09:59:48;;;;;;;8.02;7.22;;;;;;;;;;10246832;28;20185;-75
2023/09/16 10:05:01;;;;;;;9.10;8.18;;;;;;;;;;10249460;28;20047;-74
2023/09/16 10:10:16;;;;;;;9.25;7.80;;;;;;;;;;10238515;28;20068;-74
2023/09/16 10:15:22;;;;;;;10.20;8.20;;;;;;;;;;10252110;28;20057;-74
2023/09/16 10:20:51;;;;;;;7.83;6.97;;;;;;;;;;10254191;28;20049;-73
2023/09/16 10:26:21;;;;;;;8.55;7.60;;;;;;;;;;10246606;28;20250;-74
2023/09/16 10:43:28;;;;;;;8.50;7.75;;;;;;;;;;10231119;28;20072;-74
2023/09/16 10:48:25;;;;;;;8.32;7.53;;;;;;;;;;10244907;28;20128;-74
2023/09/16 10:53:57;;;;;;;8.50;7.78;;;;;;;;;;10265292;28;20559;-74
2023/09/16 10:59:13;;;;;;;9.43;7.55;;;;;;;;;;10171157;28;20524;-74
2023/09/16 11:04:50;;;;;;;9.15;8.25;;;;;;;;;;10258418;28;20053;-74
2023/09/16 11:10:51;;;;;;;;;;;;;;;;;;;;;
2023/09/16 11:16:24;;;;;;;9.65;8.73;;;;;;;;;;10172096;28;20045;-74
2023/09/16 11:21:33;;;;;;;10.80;8.60;;;;;;;;;;10237851;28;20115;-74
2023/09/16 11:26:45;;;;;;;9.35;8.45;;;;;;;;;;10251753;28;20075;-74
2023/09/16 11:32:30;;;;;;;9.60;8.77;;;;;;;;;;10221355;28;20454;-73
2023/09/16 11:37:30;;;;;;;10.60;8.40;;;;;;;;;;10251436;28;20139;-73
2023/09/16 11:42:26;;;;;;;10.15;9.25;;;;;;;;;;10260536;28;20072;-73
2023/09/16 11:47:22;;;;;;;9.48;8.57;;;;;;;;;;10256613;28;20103;-73
2023/09/16 11:52:20;;;;;;;12.68;9.20;;;;;;;;;;10253419;28;20052;-73
2023/09/16 11:57:17;;;;;;;10.55;9.52;;;;;;;;;;10253974;28;20618;-73
2023/09/16 12:02:14;;;;;;;9.05;8.25;;;;;;;;;;10258907;28;20088;-74
2023/09/16 12:07:11;;;;;;;13.15;8.77;;;;;;;;;;10255024;28;20135;-74
2023/09/16 12:12:08;;;;;;;8.63;7.88;;;;;;;;;;10225450;28;20139;-73
2023/09/16 12:17:05;;;;;;;9.80;9.00;;;;;;;;;;10243898;28;20472;-74
2023/09/16 12:22:01;;;;;;;9.18;8.38;;;;;;;;;;10254448;28;20056;-75
2023/09/16 12:26:58;;;;;;;9.38;8.57;;;;;;;;;;10246434;28;20421;-74
2023/09/16 12:32:06;;;;;;;9.05;8.15;;;;;;;;;;10258435;28;20112;-74
2023/09/16 12:37:03;;;;;;;8.70;8.00;;;;;;;;;;10257657;28;20540;-74
2023/09/16 12:42:00;;;;;;;7.90;7.28;;;;;;;;;;10263612;28;20060;-74
2023/09/16 12:47:12;;;;;;;7.50;6.80;;;;;;;;;;10258226;28;20053;-74
2023/09/16 12:52:08;;;;;;;7.90;7.20;;;;;;;;;;10252105;28;20176;-74
2023/09/16 12:57:11;;;;;;;7.57;6.88;;;;;;;;;;10227555;22;20073;-74
2023/09/16 13:55:55;;;;;;;7.22;6.63;;;;;;;;;;10703802;22;20045;-77
2023/09/16 14:00:52;;;;;;;7.47;6.67;;;;;;;;;;10226983;28;20054;-76
2023/09/16 21:00:19;;;;;;;12.07;10.88;;;;;;;;;;11231339;22;20408;-72
2023/09/16 21:05:15;;;;;;;12.93;11.60;;;;;;;;;;10055617;28;20063;-69
2023/09/16 21:10:12;;;;;;;14.50;11.23;;;;;;;;;;10072001;28;20083;-72
2023/09/16 21:21:03;;;;;;;13.90;11.98;;;;;;;;;;10126472;28;20078;-70
2023/09/16 21:26:00;;;;;;;13.85;10.85;;;;;;;;;;10129614;28;20539;-70
2023/09/16 21:30:57;;;;;;;14.10;11.05;;;;;;;;;;10106262;28;20048;-71
2023/09/16 21:41:25;;;;;;;13.23;11.48;;;;;;;;;;10137508;23;20055;-72
2023/09/16 21:46:44;;;;;;;;;;;;;;;;;;;;;
2023/09/16 21:52:05;;;;;;;15.43;12.07;;;;;;;;;;10153097;28;20539;-70
2023/09/16 21:57:22;;;;;;;13.02;11.05;;;;;;;;;;10340544;23;20051;-71
2023/09/16 22:02:18;;;;;;;12.10;10.90;;;;;;;;;;10071578;28;20050;-72
2023/09/16 22:07:14;;;;;;;13.23;11.25;;;;;;;;;;10068325;28;20047;-72
2023/09/16 22:12:11;;;;;;;12.15;10.95;;;;;;;;;;10092289;28;20480;-71
2023/09/16 22:17:07;;;;;;;12.73;11.38;;;;;;;;;;10130045;23;20073;-72
2023/09/16 22:22:04;;;;;;;15.50;11.40;;;;;;;;;;10141582;28;20590;-73
2023/09/16 22:32:05;;;;;;;16.48;12.32;;;;;;;;;;9831952;26;20130;-71
2023/09/16 22:37:01;;;;;;;14.55;13.05;;;;;;;;;;10109475;28;20625;-70
2023/09/16 22:41:58;;;;;;;12.70;11.50;;;;;;;;;;10098458;28;20752;-69
2023/09/16 22:46:54;;;;;;;13.85;12.55;;;;;;;;;;10117656;23;20130;-70
2023/09/16 22:51:51;;;;;;;15.32;13.73;;;;;;;;;;10135426;28;20047;-70
2023/09/16 22:56:49;;;;;;;15.23;13.63;;;;;;;;;;10117867;28;20053;-69
2023/09/16 23:01:45;;;;;;;15.57;14.07;;;;;;;;;;10117840;28;20506;-72
2023/09/16 23:16:58;;;;;;;18.63;14.85;;;;;;;;;;10117248;23;20042;-70
2023/09/16 23:21:54;;;;;;;19.00;15.65;;;;;;;;;;10086597;28;20042;-70
2023/09/16 23:26:50;;;;;;;17.83;16.02;;;;;;;;;;10097184;28;20569;-70
2023/09/16 23:31:47;;;;;;;17.92;15.57;;;;;;;;;;10104726;28;20058;-70
2023/09/16 23:36:43;;;;;;;18.42;15.55;;;;;;;;;;10094863;28;20078;-70
2023/09/16 23:41:40;;;;;;;18.20;16.23;;;;;;;;;;10106424;28;20567;-70
2023/09/16 23:46:36;;;;;;;16.88;15.18;;;;;;;;;;10103507;28;20070;-70
2023/09/16 23:51:33;;;;;;;16.75;15.07;;;;;;;;;;10099830;28;20059;-72
2023/09/16 23:56:29;;;;;;;19.60;16.08;;;;;;;;;;10105866;28;20047;-69
